Time;durP1;ratioP1;P1;durP2;ratioP2;P2;SDS_P1;SDS_P2;PMS_P1;PMS_P2;Temp;Humidity;BMP_temperature;BMP_pressure;BME280_temperature;BME280_humidity;BME280_pressure;Samples;Min_cycle;Max_cycle;Signal;HPM_P1;HPM_P2
2021/11/20 00:00:40;;;;;;;16.58;14.98;;;;;;;9.93;90.86;102740.63;2091127;28;20017;-68
2021/11/20 00:01:41;;;;;;;17.13;15.32;;;;;;;9.96;90.70;102730.13;2091153;28;20036;-69
2021/11/20 00:02:41;;;;;;;17.23;15.57;;;;;;;9.96;91.19;102734.50;2091091;28;20020;-70
2021/11/20 00:03:46;;;;;;;19.67;15.53;;;;;;;9.95;91.25;102728.41;2091096;28;20065;-69
2021/11/20 00:04:46;;;;;;;16.42;14.77;;;;;;;9.95;91.39;102733.63;2091141;28;20033;-69
2021/11/20 00:05:51;;;;;;;18.23;16.23;;;;;;;9.96;91.12;102740.56;2091189;28;20440;-70
2021/11/20 00:06:54;;;;;;;16.40;14.60;;;;;;;9.97;91.59;102741.44;2091079;28;20031;-69
2021/11/20 00:07:55;;;;;;;18.70;15.95;;;;;;;9.95;90.52;102728.41;2091050;28;20017;-70
2021/11/20 00:08:56;;;;;;;16.95;15.15;;;;;;;9.96;90.36;102729.28;2090953;28;20025;-69
2021/11/20 00:09:56;;;;;;;17.37;15.60;;;;;;;9.96;90.63;102726.69;2090260;28;20487;-69
2021/11/20 00:11:00;;;;;;;17.20;15.40;;;;;;;9.96;90.61;102727.53;2090450;28;20341;-69
2021/11/20 00:12:06;;;;;;;17.38;15.50;;;;;;;9.97;91.04;102726.66;2090366;28;20413;-70
2021/11/20 00:13:08;;;;;;;17.00;15.30;;;;;;;9.97;90.72;102721.44;2090288;28;20037;-69
2021/11/20 00:14:10;;;;;;;17.02;15.25;;;;;;;9.97;90.26;102725.78;2091017;28;20474;-68
2021/11/20 00:15:15;;;;;;;17.90;16.05;;;;;;;9.96;90.67;102722.31;2091070;28;20474;-70
2021/11/20 00:16:18;;;;;;;16.98;15.15;;;;;;;9.97;90.12;102726.66;2091009;28;20035;-70
2021/11/20 00:17:19;;;;;;;16.75;15.05;;;;;;;9.96;89.48;102721.47;2090340;28;20039;-69
2021/11/20 00:18:20;;;;;;;15.75;14.07;;;;;;;10.00;89.66;102720.56;2090417;28;20064;-68
2021/11/20 00:19:23;;;;;;;18.55;14.85;;;;;;;9.99;89.67;102730.09;2090954;28;20021;-69
2021/11/20 00:20:25;;;;;;;18.60;15.57;;;;;;;9.99;89.48;102718.81;2091224;28;20017;-69
2021/11/20 00:21:47;;;;;;;20.23;15.95;;;;;;;9.99;89.42;102724.88;2090909;28;20336;-68
2021/11/20 00:22:50;;;;;;;16.55;14.85;;;;;;;9.98;89.38;102723.16;2090290;28;20028;-70
2021/11/20 00:23:54;;;;;;;16.60;14.85;;;;;;;9.99;89.80;102724.03;2090344;28;20417;-68
2021/11/20 00:24:59;;;;;;;18.08;16.20;;;;;;;9.98;89.61;102720.56;2090252;28;20067;-68
2021/11/20 00:26:00;;;;;;;17.88;15.38;;;;;;;9.98;90.18;102723.16;2090202;28;20063;-68
2021/11/20 00:27:08;;;;;;;16.85;15.05;;;;;;;9.95;90.54;102720.59;2090952;28;20033;-69
2021/11/20 00:28:09;;;;;;;17.63;15.70;;;;;;;9.95;90.77;102722.34;2090907;28;20536;-68
2021/11/20 00:30:22;;;;;;;18.67;16.73;;;;;;;9.92;90.68;102720.59;2091059;28;20079;-70
2021/11/20 00:31:23;;;;;;;19.23;16.58;;;;;;;9.91;90.55;102716.28;2090218;28;20016;-68
2021/11/20 00:32:27;;;;;;;20.57;16.67;;;;;;;9.90;90.44;102715.44;2090354;28;20099;-67
2021/11/20 00:33:31;;;;;;;19.60;17.15;;;;;;;9.90;91.26;102717.16;2090744;28;20287;-68
2021/11/20 00:34:32;;;;;;;18.73;16.63;;;;;;;9.89;91.14;102715.44;2090916;28;20021;-68
2021/11/20 00:35:40;;;;;;;18.73;16.73;;;;;;;9.89;91.27;102718.06;2090815;28;20029;-70
2021/11/20 00:36:40;;;;;;;17.73;15.77;;;;;;;9.91;90.82;102716.28;2090854;28;20413;-69
2021/11/20 00:37:41;;;;;;;20.55;16.77;;;;;;;9.92;90.47;102718.00;2090865;28;20021;-69
2021/11/20 00:38:44;;;;;;;18.23;15.52;;;;;;;9.92;90.76;102724.09;2090875;28;20103;-70
2021/11/20 00:39:44;;;;;;;18.88;16.88;;;;;;;9.91;90.65;102721.50;2090857;28;20017;-70
2021/11/20 00:40:48;;;;;;;17.77;15.87;;;;;;;9.91;90.91;102724.09;2090825;28;20049;-70
2021/11/20 00:41:48;;;;;;;19.33;16.27;;;;;;;9.89;90.86;102720.66;2090133;28;20074;-69
2021/11/20 00:42:49;;;;;;;20.17;18.07;;;;;;;9.89;90.85;102720.66;2081856;28;20068;-69
2021/11/20 00:43:52;;;;;;;19.55;17.45;;;;;;;9.89;90.73;102718.06;2090210;28;20025;-68
2021/11/20 00:44:52;;;;;;;19.77;17.02;;;;;;;9.89;90.97;102712.84;2090831;28;20505;-69
2021/11/20 00:45:53;;;;;;;19.17;17.13;;;;;;;9.88;90.97;102713.69;2090748;28;20028;-70
2021/11/20 00:46:54;;;;;;;19.33;17.30;;;;;;;9.88;91.37;102716.31;2090745;28;20536;-69
2021/11/20 00:47:54;;;;;;;19.00;16.98;;;;;;;9.88;91.28;102711.09;2090143;28;20067;-69
2021/11/20 00:48:55;;;;;;;20.37;16.87;;;;;;;9.87;91.14;102714.59;2090177;28;20402;-68
2021/11/20 00:49:57;;;;;;;19.35;16.63;;;;;;;9.88;91.64;102721.50;2090674;28;20029;-68
2021/11/20 00:51:02;;;;;;;19.63;17.15;;;;;;;9.87;91.02;102715.47;2090749;28;20063;-68
2021/11/20 00:52:04;;;;;;;19.17;16.40;;;;;;;9.87;91.26;102719.78;2090724;28;20028;-68
2021/11/20 00:53:05;;;;;;;22.38;18.15;;;;;;;9.86;91.05;102715.47;2090758;28;20021;-69
2021/11/20 00:54:06;;;;;;;19.60;17.40;;;;;;;9.86;91.68;102713.72;2090121;28;20407;-68
2021/11/20 00:55:07;;;;;;;;;;;;;;;9.88;91.96;102711.09;2090562;28;20033;-68
2021/11/20 00:56:08;;;;;;;21.85;16.60;;;;;;;9.86;91.27;102712.84;2090718;28;20282;-68
2021/11/20 00:57:10;;;;;;;19.75;15.85;;;;;;;9.87;91.55;102709.38;2090673;28;20036;-68
2021/11/20 00:58:11;;;;;;;19.90;16.83;;;;;;;9.86;91.54;102707.66;2090673;28;20070;-69
2021/11/20 00:59:12;;;;;;;22.63;17.02;;;;;;;9.85;91.35;102705.94;2090672;28;20021;-69
2021/11/20 01:00:15;;;;;;;19.13;16.05;;;;;;;9.85;91.25;102711.97;2090585;28;20086;-69
2021/11/20 01:01:19;;;;;;;18.50;16.42;;;;;;;9.86;91.56;102702.44;2089979;28;20462;-68
2021/11/20 01:02:19;;;;;;;20.70;17.40;;;;;;;9.86;91.44;102702.44;2090072;28;20119;-69
2021/11/20 01:03:20;;;;;;;21.25;17.23;;;;;;;9.86;92.21;102705.03;2090029;28;20040;-70
2021/11/20 01:04:23;;;;;;;20.83;17.85;;;;;;;9.85;91.72;102706.75;2090077;28;20048;-69
2021/11/20 01:05:24;;;;;;;20.10;16.98;;;;;;;9.85;91.73;102705.94;2090562;28;20053;-69
2021/11/20 01:06:25;;;;;;;20.92;17.85;;;;;;;9.86;91.52;102702.44;2090682;28;20020;-70
2021/11/20 01:07:25;;;;;;;21.70;17.67;;;;;;;9.85;91.35;102703.31;2090609;28;20134;-67
2021/11/20 01:08:30;;;;;;;19.37;16.70;;;;;;;9.86;91.98;102707.66;2090622;28;20063;-69
2021/11/20 01:09:36;;;;;;;22.33;18.48;;;;;;;9.85;92.41;102703.31;2090451;28;20021;-68
2021/11/20 01:10:40;;;;;;;22.27;17.17;;;;;;;9.84;92.69;102704.16;2089876;28;20025;-70
2021/11/20 01:11:47;;;;;;;19.20;17.17;;;;;;;9.84;93.07;102704.16;2090003;28;20382;-68
2021/11/20 01:12:48;;;;;;;21.10;18.20;;;;;;;9.82;92.37;102696.34;2090567;28;20508;-69
2021/11/20 01:13:50;;;;;;;21.05;17.40;;;;;;;9.81;92.84;102692.03;2090571;28;20024;-68
2021/11/20 01:14:52;;;;;;;20.67;17.40;;;;;;;9.82;92.46;102695.50;2090553;28;20024;-68
2021/11/20 01:15:57;;;;;;;20.30;17.00;;;;;;;9.83;92.56;102692.03;2090636;28;20032;-68
2021/11/20 01:16:58;;;;;;;21.40;19.02;;;;;;;9.82;92.85;102693.75;2090497;28;20028;-68
2021/11/20 01:17:59;;;;;;;22.55;18.15;;;;;;;9.83;92.50;102692.03;2090582;28;20021;-68
2021/11/20 01:19:01;;;;;;;20.15;17.52;;;;;;;9.82;92.86;102690.31;2089856;28;20199;-68
2021/11/20 01:20:06;;;;;;;23.73;17.70;;;;;;;9.81;93.20;102683.38;2089964;28;20166;-68
2021/11/20 01:21:07;;;;;;;22.95;17.50;;;;;;;9.78;93.26;102685.09;2089796;28;20032;-69
2021/11/20 01:22:11;;;;;;;23.23;18.58;;;;;;;9.78;93.13;102684.22;2089910;28;20029;-69
2021/11/20 01:23:12;;;;;;;22.55;17.10;;;;;;;9.77;93.33;102682.50;2090403;28;20021;-69
2021/11/20 01:24:12;;;;;;;;;;;;;;;9.78;92.77;102684.22;2090806;28;20029;-68
2021/11/20 01:25:14;;;;;;;20.33;16.63;;;;;;;9.76;93.20;102684.25;2089421;28;19956;-69
2021/11/20 01:26:15;;;;;;;;;;;;;;;9.77;93.14;102680.78;2090045;28;20060;-69
2021/11/20 01:27:16;;;;;;;18.88;15.25;;;;;;;9.74;93.84;102680.81;2090472;28;19997;-70
2021/11/20 01:28:17;;;;;;;;;;;;;;;9.78;93.12;102684.22;2090940;28;20024;-68
2021/11/20 01:29:18;;;;;;;21.55;15.80;;;;;;;9.76;93.38;102680.78;2090424;28;20114;-69
2021/11/20 01:30:19;;;;;;;22.23;16.67;;;;;;;9.75;93.35;102685.13;2090467;28;20051;-68
2021/11/20 01:31:22;;;;;;;;;;;;;;;9.77;93.58;102680.78;2090717;28;20033;-68
2021/11/20 01:32:22;;;;;;;21.15;15.00;;;;;;;9.75;94.28;102679.06;2090429;28;19920;-68
2021/11/20 01:33:23;;;;;;;22.58;17.02;;;;;;;9.73;93.99;102681.69;2090426;28;20021;-69
2021/11/20 01:34:24;;;;;;;23.90;17.63;;;;;;;9.73;94.00;102680.81;2090407;28;20048;-68
2021/11/20 01:35:27;;;;;;;23.15;17.65;;;;;;;9.73;94.32;102686.03;2090454;28;20025;-70
2021/11/20 01:36:30;;;;;;;22.50;17.73;;;;;;;9.72;94.05;102687.75;2090400;28;20032;-69
2021/11/20 01:37:31;;;;;;;22.77;17.25;;;;;;;9.71;93.81;102683.44;2090218;28;20436;-68
2021/11/20 01:38:31;;;;;;;21.40;17.30;;;;;;;9.72;94.52;102681.69;2089810;28;20025;-68
2021/11/20 01:39:34;;;;;;;27.85;19.00;;;;;;;9.73;94.01;102686.03;2081493;28;20287;-68
2021/11/20 01:40:37;;;;;;;26.02;19.08;;;;;;;9.73;94.39;102686.03;2089731;28;20047;-68
2021/11/20 01:41:40;;;;;;;23.17;16.90;;;;;;;9.72;94.87;102684.31;2089681;28;20160;-67
2021/11/20 01:42:40;;;;;;;25.05;19.00;;;;;;;9.72;94.38;102679.94;2089660;28;20064;-67
2021/11/20 01:43:41;;;;;;;25.37;17.77;;;;;;;9.71;94.78;102675.63;2090363;28;20027;-68
2021/11/20 01:44:52;;;;;;;26.70;19.63;;;;;;;9.70;94.82;102676.50;2090292;28;20033;-68
2021/11/20 01:45:55;;;;;;;26.63;18.87;;;;;;;9.70;94.73;102675.63;2090374;28;20044;-69
2021/11/20 01:47:00;;;;;;;25.63;19.40;;;;;;;9.68;94.74;102673.03;2090301;28;20102;-68
2021/11/20 01:48:25;;;;;;;27.63;19.40;;;;;;;9.68;95.21;102670.41;2089673;28;20068;-68
2021/11/20 01:49:32;;;;;;;25.52;18.70;;;;;;;9.67;94.77;102666.09;2089875;28;20398;-69
2021/11/20 01:50:37;;;;;;;27.75;19.08;;;;;;;9.66;94.88;102669.59;2090262;28;20436;-67
2021/11/20 01:51:51;;;;;;;27.48;19.17;;;;;;;9.66;94.55;102662.59;2090306;28;20017;-68
2021/11/20 01:53:06;;;;;;;27.60;18.98;;;;;;;9.65;95.67;102660.88;2090261;28;20049;-69
2021/11/20 01:54:13;;;;;;;29.75;18.10;;;;;;;9.65;94.89;102660.03;2089570;28;20032;-68
2021/11/20 01:55:23;;;;;;;28.50;19.05;;;;;;;9.65;95.27;102663.50;2089728;28;20055;-69
2021/11/20 01:56:32;;;;;;;27.23;18.35;;;;;;;9.63;95.02;102660.06;2090320;28;20100;-68
2021/11/20 01:58:04;;;;;;;26.27;18.13;;;;;;;9.64;95.74;102658.28;2090244;28;20382;-68
2021/11/20 01:59:12;;;;;;;27.52;18.08;;;;;;;9.62;95.63;102652.25;2089786;28;20036;-68
2021/11/20 02:01:03;;;;;;;28.52;19.33;;;;;;;9.63;95.54;102657.44;2090255;28;20036;-69
2021/11/20 02:02:17;;;;;;;27.75;18.45;;;;;;;9.64;95.69;102656.56;2089429;28;20033;-69
2021/11/20 02:03:32;;;;;;;25.67;18.92;;;;;;;9.63;95.84;102653.97;2090027;28;20032;-69
2021/11/20 02:04:38;;;;;;;24.88;18.23;;;;;;;9.63;95.83;102648.75;2090225;28;20371;-68
2021/11/20 02:06:00;;;;;;;30.17;19.35;;;;;;;9.62;95.72;102641.81;2089546;28;20025;-68
2021/11/20 02:07:21;;;;;;;29.27;19.90;;;;;;;9.61;95.79;102642.72;2089796;28;20107;-69
2021/11/20 02:08:41;;;;;;;30.77;20.20;;;;;;;9.60;95.45;102635.75;2090233;28;20113;-69
2021/11/20 02:09:47;;;;;;;25.02;18.65;;;;;;;9.59;96.35;102631.41;2089570;28;20031;-68
2021/11/20 02:11:02;;;;;;;30.27;19.50;;;;;;;9.57;95.46;102628.81;2089580;28;20017;-69
2021/11/20 02:12:08;;;;;;;27.90;19.98;;;;;;;9.56;95.73;102629.72;2090158;28;20021;-68
2021/11/20 02:13:13;;;;;;;29.02;19.85;;;;;;;9.56;95.77;102621.00;2090141;28;20036;-69
2021/11/20 02:14:16;;;;;;;32.22;22.00;;;;;;;9.55;96.61;102624.50;2090140;28;20040;-69
2021/11/20 02:15:35;;;;;;;26.55;19.48;;;;;;;9.53;96.18;102630.59;2089571;28;20393;-69
2021/11/20 02:16:40;;;;;;;32.00;20.15;;;;;;;9.52;96.13;102635.81;2089604;28;20521;-68
2021/11/20 02:17:46;;;;;;;29.52;21.35;;;;;;;9.53;96.12;102637.53;2090199;28;20017;-69
2021/11/20 02:18:56;;;;;;;29.85;21.92;;;;;;;9.53;96.35;102628.00;2089499;28;20482;-69
2021/11/20 02:20:00;;;;;;;31.92;21.38;;;;;;;9.53;96.17;102633.22;2089673;28;20024;-69
2021/11/20 02:21:14;;;;;;;28.70;20.65;;;;;;;9.52;96.45;102631.47;2090262;28;20036;-70
2021/11/20 02:22:39;;;;;;;30.95;19.85;;;;;;;9.53;96.06;102630.59;2090171;28;20111;-68
2021/11/20 02:23:39;;;;;;;34.13;22.90;;;;;;;9.53;96.00;102627.13;2090151;28;20017;-68
2021/11/20 02:24:39;;;;;;;33.47;21.73;;;;;;;9.53;96.34;102622.78;2090208;28;20023;-69
2021/11/20 02:25:39;;;;;;;31.90;21.00;;;;;;;9.52;96.54;102634.06;2089502;28;20540;-69
2021/11/20 02:26:40;;;;;;;33.23;21.97;;;;;;;9.52;96.16;102625.41;2089405;28;20041;-69
2021/11/20 02:27:46;;;;;;;35.13;22.70;;;;;;;9.52;96.51;102626.25;2090206;28;20048;-70
2021/11/20 02:28:48;;;;;;;32.05;21.27;;;;;;;9.52;96.63;102626.25;2089411;28;20108;-69
2021/11/20 02:29:48;;;;;;;34.47;23.17;;;;;;;9.52;96.16;102631.47;2089449;28;20029;-68
2021/11/20 02:30:49;;;;;;;32.83;22.40;;;;;;;9.53;96.54;102627.13;2090119;28;20056;-68
2021/11/20 02:31:53;;;;;;;35.08;23.38;;;;;;;9.53;96.36;102617.56;2090183;28;20017;-69
2021/11/20 02:33:00;;;;;;;36.83;24.23;;;;;;;9.53;96.40;102632.34;2089339;28;20021;-69
2021/11/20 02:34:00;;;;;;;32.40;21.98;;;;;;;9.52;96.63;102626.25;2089590;28;20033;-68
2021/11/20 02:35:00;;;;;;;36.17;22.93;;;;;;;9.53;96.42;102630.59;2089403;28;20039;-70
2021/11/20 02:36:07;;;;;;;34.13;24.60;;;;;;;9.52;95.56;102626.25;2089638;28;20029;-69
2021/11/20 02:37:08;;;;;;;35.15;23.77;;;;;;;9.52;96.06;102621.03;2090781;28;20047;-68
2021/11/20 02:38:21;;;;;;;33.90;23.58;;;;;;;9.52;95.98;102626.25;2091832;28;20163;-69
2021/11/20 02:39:26;;;;;;;37.50;23.65;;;;;;;9.51;95.88;102629.75;2091813;28;20064;-69
2021/11/20 02:40:27;;;;;;;40.58;25.08;;;;;;;9.52;96.45;102625.41;2091841;28;20481;-69
2021/11/20 02:41:31;;;;;;;39.55;25.42;;;;;;;9.51;95.65;102626.25;2091863;28;20036;-68
2021/11/20 02:42:31;;;;;;;34.88;24.58;;;;;;;9.51;95.98;102629.75;2091857;28;20103;-69
2021/11/20 02:43:37;;;;;;;35.47;25.50;;;;;;;9.50;96.42;102622.81;2091116;28;20074;-70
2021/11/20 02:44:38;;;;;;;37.97;24.45;;;;;;;9.50;96.08;102624.53;2083673;28;20045;-69
2021/11/20 02:45:41;;;;;;;35.03;24.20;;;;;;;9.49;95.69;102618.47;2091249;28;20100;-69
2021/11/20 02:46:45;;;;;;;36.95;23.80;;;;;;;9.50;95.78;102622.81;2091896;28;20017;-69
2021/11/20 02:47:46;;;;;;;37.70;24.33;;;;;;;9.51;95.58;102611.50;2091759;28;20028;-69
2021/11/20 02:48:47;;;;;;;39.43;25.53;;;;;;;9.51;95.82;102624.53;2091886;28;20047;-68
2021/11/20 02:49:47;;;;;;;41.38;25.55;;;;;;;9.53;95.23;102627.13;2091678;28;20071;-69
2021/11/20 02:50:55;;;;;;;40.47;26.10;;;;;;;9.52;95.18;102623.63;2091058;28;20459;-68
2021/11/20 02:52:00;;;;;;;41.03;25.45;;;;;;;9.53;95.41;102625.38;2091178;28;20023;-68
2021/11/20 02:53:01;;;;;;;38.70;25.98;;;;;;;9.52;94.94;102623.63;2091696;28;20104;-68
2021/11/20 02:54:15;;;;;;;43.53;26.90;;;;;;;9.52;95.01;102623.63;2091721;28;20028;-69
2021/11/20 02:55:16;;;;;;;42.97;26.33;;;;;;;9.53;95.08;102621.91;2091615;28;20038;-70
2021/11/20 02:56:20;;;;;;;44.83;27.10;;;;;;;9.53;95.62;102624.50;2091780;28;20482;-68
2021/11/20 02:57:24;;;;;;;43.90;27.38;;;;;;;9.52;94.79;102614.97;2090988;28;20044;-69
2021/11/20 02:58:26;;;;;;;44.03;28.55;;;;;;;9.52;95.27;102615.81;2091093;28;20043;-70
2021/11/20 02:59:27;;;;;;;41.38;26.73;;;;;;;9.52;95.00;102620.19;2090857;28;20041;-68
2021/11/20 03:00:28;;;;;;;44.17;26.60;;;;;;;9.51;94.74;102619.31;2091061;28;20017;-68
2021/11/20 03:01:33;;;;;;;41.13;27.70;;;;;;;9.52;94.58;102610.59;2091716;28;20444;-67
2021/11/20 03:02:33;;;;;;;46.97;27.15;;;;;;;9.52;95.15;102618.44;2091581;28;20033;-69
2021/11/20 03:03:34;;;;;;;39.50;25.40;;;;;;;9.53;94.51;102612.34;2091563;28;20028;-69
2021/11/20 03:04:34;;;;;;;43.83;26.98;;;;;;;9.53;94.79;102609.75;2091580;28;20025;-69
2021/11/20 03:05:34;;;;;;;46.00;27.50;;;;;;;9.53;94.68;102614.09;2091681;28;20032;-70
2021/11/20 03:06:35;;;;;;;41.87;27.03;;;;;;;9.52;94.84;102618.44;2091621;28;20471;-68
2021/11/20 03:07:35;;;;;;;44.13;28.45;;;;;;;9.54;94.77;102613.19;2091605;28;20052;-69
2021/11/20 03:08:36;;;;;;;44.13;26.50;;;;;;;9.54;94.72;102615.81;2091651;28;20036;-68
2021/11/20 03:09:39;;;;;;;39.63;27.38;;;;;;;9.53;94.42;102616.69;2090922;28;20497;-69
2021/11/20 03:10:41;;;;;;;47.22;28.05;;;;;;;9.52;94.84;102615.81;2091017;28;20521;-68
2021/11/20 03:11:42;;;;;;;39.17;25.73;;;;;;;9.52;94.64;102615.81;2090779;28;20518;-69
2021/11/20 03:12:43;;;;;;;47.47;30.08;;;;;;;9.51;94.85;102606.28;2090949;28;20115;-68
2021/11/20 03:13:47;;;;;;;40.40;26.90;;;;;;;9.51;94.98;102608.00;2082701;28;20083;-68
2021/11/20 03:14:47;;;;;;;43.85;28.48;;;;;;;9.51;94.52;102619.31;2090970;28;20033;-69
2021/11/20 03:15:48;;;;;;;42.40;28.43;;;;;;;9.50;94.86;102612.38;2091545;28;20032;-70
2021/11/20 03:16:58;;;;;;;41.27;26.07;;;;;;;9.49;94.87;102610.66;2091513;28;20100;-68
2021/11/20 03:17:58;;;;;;;43.88;27.75;;;;;;;9.48;94.99;102605.47;2090773;28;20538;-68
2021/11/20 03:18:58;;;;;;;40.80;27.10;;;;;;;9.47;95.54;102607.19;2090960;28;20051;-68
2021/11/20 03:20:00;;;;;;;43.30;27.27;;;;;;;9.46;94.84;102608.09;2091441;28;20017;-69
2021/11/20 03:21:01;;;;;;;39.60;25.33;;;;;;;9.45;95.22;102608.97;2091520;28;20024;-69
2021/11/20 03:22:09;;;;;;;42.53;27.50;;;;;;;9.45;94.63;102601.16;2091504;28;20028;-69
2021/11/20 03:23:23;;;;;;;44.03;28.65;;;;;;;9.47;94.90;102609.78;2090778;28;20032;-68
2021/11/20 03:24:25;;;;;;;45.25;26.60;;;;;;;9.47;94.91;102601.97;2090844;28;20029;-67
2021/11/20 03:25:26;;;;;;;43.65;28.02;;;;;;;9.48;94.55;102608.91;2091440;28;20398;-68
2021/11/20 03:26:26;;;;;;;39.78;26.05;;;;;;;9.46;94.96;102602.88;2090578;28;20056;-68
2021/11/20 03:27:26;;;;;;;42.47;27.53;;;;;;;9.46;94.52;102597.66;2090766;28;20052;-69
2021/11/20 03:28:26;;;;;;;38.40;27.20;;;;;;;9.45;94.28;102588.13;2090810;28;20058;-68
2021/11/20 03:29:28;;;;;;;37.40;26.37;;;;;;;9.45;94.33;102595.06;2091286;28;20033;-68
2021/11/20 03:30:28;;;;;;;42.97;27.13;;;;;;;9.45;93.77;102593.31;2091474;28;20118;-68
2021/11/20 03:31:28;;;;;;;41.07;27.43;;;;;;;9.45;94.12;102592.44;2090776;28;20029;-68
2021/11/20 03:32:29;;;;;;;41.33;26.40;;;;;;;9.44;94.27;102588.97;2090866;28;20489;-69
2021/11/20 03:33:30;;;;;;;42.30;27.33;;;;;;;9.45;93.83;102593.31;2091338;28;20518;-69
2021/11/20 03:34:32;;;;;;;39.70;26.42;;;;;;;9.44;93.77;102586.38;2091459;28;20032;-69
2021/11/20 03:35:33;;;;;;;39.17;26.45;;;;;;;9.44;93.87;102583.75;2091290;28;20453;-69
2021/11/20 03:36:34;;;;;;;39.35;26.48;;;;;;;9.44;93.79;102591.59;2090620;28;20021;-67
2021/11/20 03:37:35;;;;;;;37.13;25.17;;;;;;;9.44;93.20;102588.97;2090696;28;20079;-69
2021/11/20 03:38:35;;;;;;;40.72;25.75;;;;;;;9.43;92.77;102589.84;2091394;28;20440;-68
2021/11/20 03:39:37;;;;;;;35.93;24.63;;;;;;;9.44;92.96;102586.38;2091276;28;20043;-68
2021/11/20 03:40:38;;;;;;;38.20;26.02;;;;;;;9.43;92.99;102589.84;2091316;28;20386;-69
2021/11/20 03:41:40;;;;;;;39.40;25.63;;;;;;;9.43;93.12;102584.66;2090650;28;20119;-68
2021/11/20 03:42:40;;;;;;;37.30;24.55;;;;;;;9.43;92.46;102589.84;2090702;28;20021;-68
2021/11/20 03:43:41;;;;;;;37.00;25.13;;;;;;;9.44;92.45;102588.13;2091290;28;20025;-66
2021/11/20 03:44:41;;;;;;;37.75;24.92;;;;;;;9.44;92.25;102586.38;2091287;28;20025;-67
2021/11/20 03:45:43;;;;;;;35.60;24.40;;;;;;;9.44;91.84;102591.59;2091237;28;20104;-68
2021/11/20 03:46:44;;;;;;;38.53;25.27;;;;;;;9.45;91.88;102587.25;2091354;28;20013;-68
2021/11/20 03:47:44;;;;;;;35.90;25.33;;;;;;;9.45;91.99;102588.13;2090713;28;20063;-68
2021/11/20 03:48:44;;;;;;;34.80;22.90;;;;;;;9.45;91.55;102587.25;2091175;28;20470;-68
2021/11/20 03:49:45;;;;;;;33.60;24.10;;;;;;;9.45;91.69;102588.13;2091156;28;20029;-69
2021/11/20 03:50:47;;;;;;;39.58;25.00;;;;;;;9.45;91.36;102588.13;2091292;28;20020;-68
2021/11/20 03:51:47;;;;;;;32.35;23.02;;;;;;;9.46;91.44;102588.97;2090517;28;20134;-67
2021/11/20 03:52:48;;;;;;;32.67;23.17;;;;;;;9.46;91.44;102584.63;2090653;28;20036;-68
2021/11/20 03:53:48;;;;;;;36.63;24.03;;;;;;;9.49;91.40;102586.34;2091189;28;20367;-69
2021/11/20 03:54:50;;;;;;;36.37;24.53;;;;;;;9.47;91.44;102586.34;2091252;28;20029;-68
2021/11/20 03:55:50;;;;;;;35.45;23.77;;;;;;;9.47;91.49;102591.56;2091107;28;20024;-70
2021/11/20 03:56:51;;;;;;;33.92;23.00;;;;;;;9.49;91.00;102599.38;2091168;28;20021;-69
2021/11/20 03:57:52;;;;;;;37.83;24.23;;;;;;;9.50;91.29;102590.66;2090602;28;20024;-69
2021/11/20 03:58:52;;;;;;;35.67;23.25;;;;;;;9.48;90.56;102588.06;2082369;28;20044;-68
2021/11/20 03:59:52;;;;;;;32.97;22.63;;;;;;;9.48;90.65;102584.63;2090629;28;20512;-68
2021/11/20 04:01:06;;;;;;;33.57;23.13;;;;;;;9.47;90.65;102586.34;2090460;28;20021;-69
2021/11/20 04:02:07;;;;;;;31.23;21.80;;;;;;;9.47;90.74;102585.47;2090591;28;20021;-69
2021/11/20 04:03:07;;;;;;;32.95;23.13;;;;;;;9.46;90.84;102579.41;2090574;28;20037;-68
2021/11/20 04:04:08;;;;;;;32.33;22.70;;;;;;;9.45;91.30;102582.91;2090446;28;20083;-68
2021/11/20 04:05:09;;;;;;;29.60;20.97;;;;;;;9.44;90.98;102578.56;2082208;28;20029;-67
2021/11/20 04:06:12;;;;;;;34.90;22.90;;;;;;;9.43;91.39;102579.44;2090694;28;20021;-69
2021/11/20 04:07:12;;;;;;;29.50;20.65;;;;;;;9.42;91.01;102582.94;2091867;28;20083;-68
2021/11/20 04:08:13;;;;;;;30.27;20.47;;;;;;;9.44;90.37;102575.94;2091303;28;20094;-69
2021/11/20 04:09:14;;;;;;;31.20;22.60;;;;;;;9.45;90.11;102577.69;2090539;28;20048;-68
2021/11/20 04:10:16;;;;;;;30.75;21.88;;;;;;;9.47;90.48;102581.13;2090310;28;20029;-69
2021/11/20 04:11:29;;;;;;;28.77;20.55;;;;;;;9.46;90.58;102582.03;2090502;28;20083;-68
2021/11/20 04:12:30;;;;;;;31.92;21.70;;;;;;;9.46;89.68;102586.34;2091017;28;20028;-69
2021/11/20 04:13:30;;;;;;;28.02;19.38;;;;;;;9.45;89.26;102582.03;2091130;28;20042;-67
2021/11/20 04:14:30;;;;;;;26.97;18.50;;;;;;;9.45;89.42;102579.44;2091026;28;20036;-68
2021/11/20 04:15:30;;;;;;;27.70;19.17;;;;;;;9.44;88.90;102573.34;2091048;28;20037;-67
2021/11/20 04:16:32;;;;;;;29.97;19.63;;;;;;;9.45;89.80;102580.31;2091044;28;20394;-68
2021/11/20 04:17:33;;;;;;;31.08;20.55;;;;;;;9.45;89.66;102571.59;2091096;28;20016;-68
2021/11/20 04:18:34;;;;;;;32.53;20.87;;;;;;;9.43;89.49;102574.22;2091025;28;20017;-68
2021/11/20 04:19:35;;;;;;;29.33;20.55;;;;;;;9.43;89.35;102574.22;2090392;28;20048;-69
2021/11/20 04:20:35;;;;;;;30.70;21.05;;;;;;;9.44;89.50;102575.09;2090455;28;20029;-69
2021/11/20 04:21:37;;;;;;;29.27;20.80;;;;;;;9.43;89.45;102579.44;2090324;28;20027;-69
2021/11/20 04:22:37;;;;;;;28.73;19.17;;;;;;;9.42;89.31;102576.84;2090376;28;20403;-69
2021/11/20 04:23:38;;;;;;;28.77;19.07;;;;;;;9.45;89.26;102576.81;2091001;28;20104;-70
2021/11/20 04:24:38;;;;;;;31.30;20.87;;;;;;;9.44;89.46;102581.16;2090975;28;20707;-68
2021/11/20 04:25:40;;;;;;;30.83;20.20;;;;;;;9.42;90.02;102576.84;2091037;28;20417;-68
2021/11/20 04:26:41;;;;;;;28.75;20.35;;;;;;;9.38;89.28;102576.88;2090782;28;20525;-68
2021/11/20 04:27:41;;;;;;;32.70;20.73;;;;;;;9.37;89.21;102572.53;2090306;28;20082;-68
2021/11/20 04:28:42;;;;;;;30.92;19.33;;;;;;;9.39;89.59;102573.41;2090398;28;20029;-69
2021/11/20 04:29:42;;;;;;;28.77;19.70;;;;;;;9.39;88.95;102568.19;2090942;28;20039;-69
2021/11/20 04:30:44;;;;;;;26.87;18.50;;;;;;;9.40;89.15;102569.03;2090955;28;20064;-69
2021/11/20 04:31:45;;;;;;;28.75;20.15;;;;;;;9.39;89.51;102567.31;2090279;28;20063;-69
2021/11/20 04:32:45;;;;;;;30.73;19.60;;;;;;;9.39;89.27;102573.41;2082091;28;20503;-70
2021/11/20 04:33:47;;;;;;;23.97;17.23;;;;;;;9.38;88.81;102566.44;2090315;28;20048;-68
2021/11/20 04:34:48;;;;;;;26.45;18.52;;;;;;;9.38;89.08;102571.66;2082204;28;20025;-70
2021/11/20 04:35:48;;;;;;;24.40;16.10;;;;;;;9.39;90.11;102569.91;2090369;28;20457;-70
2021/11/20 04:36:48;;;;;;;26.03;18.97;;;;;;;9.37;90.02;102569.06;2090776;28;20029;-70
2021/11/20 04:37:49;;;;;;;28.77;20.47;;;;;;;9.37;90.58;102574.28;2090882;28;20021;-69
2021/11/20 04:38:49;;;;;;;30.90;21.73;;;;;;;9.33;90.06;102578.66;2090932;28;20017;-68
2021/11/20 04:39:49;;;;;;;27.70;19.73;;;;;;;9.33;89.79;102583.88;2090835;28;20354;-68
2021/11/20 04:40:50;;;;;;;28.60;19.87;;;;;;;9.33;89.95;102572.56;2090885;28;20049;-68
2021/11/20 04:41:50;;;;;;;33.37;20.03;;;;;;;9.33;89.88;102583.00;2091078;28;20059;-68
2021/11/20 04:42:51;;;;;;;27.57;18.73;;;;;;;9.32;89.98;102576.06;2090192;28;20025;-69
2021/11/20 04:43:52;;;;;;;;;;;;;;;9.32;90.23;102570.84;2090683;28;20025;-68
2021/11/20 04:44:53;;;;;;;29.13;18.23;;;;;;;9.31;90.27;102569.97;2090800;28;19913;-68
2021/11/20 04:45:53;;;;;;;26.52;17.85;;;;;;;9.30;89.95;102572.63;2090085;28;20021;-68
2021/11/20 04:46:53;;;;;;;25.63;18.53;;;;;;;9.28;89.31;102573.47;2090271;28;20017;-67
2021/11/20 04:47:54;;;;;;;23.43;17.53;;;;;;;9.32;88.88;102576.94;2090810;28;20098;-67
2021/11/20 04:48:54;;;;;;;24.58;19.10;;;;;;;9.34;88.82;102569.13;2090745;28;20035;-68
2021/11/20 04:49:55;;;;;;;26.67;17.50;;;;;;;9.34;88.40;102569.13;2090061;28;20478;-68
2021/11/20 04:50:57;;;;;;;26.23;16.57;;;;;;;9.35;87.94;102560.41;2090203;28;20028;-67
2021/11/20 04:51:57;;;;;;;24.23;17.58;;;;;;;9.36;88.51;102562.13;2090762;28;20113;-67
2021/11/20 04:52:57;;;;;;;21.80;15.93;;;;;;;9.34;88.22;102569.13;2090802;28;20497;-69